Time;durP1;ratioP1;P1;durP2;ratioP2;P2;SDS_P1;SDS_P2;PMS_P1;PMS_P2;Temp;Humidity;BMP_temperature;BMP_pressure;BME280_temperature;BME280_humidity;BME280_pressure;Samples;Min_cycle;Max_cycle;Signal;HPM_P1;HPM_P2
2021/07/12 00:00:38;;;;;;;4.63;2.58;;;;;;;16.47;nan;100330.34;5008160;28;20457;-76
2021/07/12 00:03:05;;;;;;;2.67;2.38;;;;;;;16.48;nan;100334.69;5010459;28;20033;-77
2021/07/12 00:05:31;;;;;;;3.13;2.22;;;;;;;16.49;nan;100325.66;5002318;28;20101;-77
2021/07/12 00:07:57;;;;;;;2.35;2.10;;;;;;;16.54;nan;100326.72;5003450;28;20445;-77
2021/07/12 00:10:24;;;;;;;2.88;2.20;;;;;;;16.59;nan;100333.31;5009798;28;20034;-77
2021/07/12 00:12:51;;;;;;;2.45;2.00;;;;;;;16.58;nan;100326.31;5009053;28;20045;-77
2021/07/12 00:15:19;;;;;;;2.88;2.33;;;;;;;16.54;nan;100332.06;5005164;28;20034;-77
2021/07/12 00:17:46;;;;;;;3.17;2.30;;;;;;;16.49;nan;100323.81;5012702;28;20079;-77
2021/07/12 00:20:13;;;;;;;3.45;2.30;;;;;;;16.45;nan;100327.91;5013057;28;20565;-77
2021/07/12 00:22:40;;;;;;;3.47;2.30;;;;;;;16.42;nan;100325.63;5010745;28;20041;-77
2021/07/12 00:25:07;;;;;;;4.25;2.30;;;;;;;16.40;nan;100310.78;5007378;28;20034;-77
2021/07/12 00:27:35;;;;;;;3.47;2.20;;;;;;;16.38;nan;100308.34;5002950;28;20125;-77
2021/07/12 00:30:01;;;;;;;3.22;2.40;;;;;;;16.38;nan;100312.88;5006137;28;20112;-78
2021/07/12 00:32:26;;;;;;;2.83;2.38;;;;;;;16.34;nan;100313.22;5001581;28;20483;-77
2021/07/12 00:34:51;;;;;;;3.10;2.63;;;;;;;16.29;nan;100314.84;5012636;28;20034;-77
2021/07/12 00:37:17;;;;;;;4.60;2.28;;;;;;;16.27;nan;100303.53;5014058;28;20038;-77
2021/07/12 00:39:42;;;;;;;4.82;2.78;;;;;;;16.23;nan;100307.59;5012271;28;20038;-77
2021/07/12 00:42:08;;;;;;;3.15;2.55;;;;;;;16.34;nan;100294.56;5012250;28;20121;-77
2021/07/12 00:44:34;;;;;;;2.90;2.28;;;;;;;16.29;nan;100286.31;5008182;28;20077;-77
2021/07/12 00:46:59;;;;;;;3.60;2.55;;;;;;;16.27;nan;100283.00;5011932;28;20034;-77
2021/07/12 00:49:25;;;;;;;3.22;2.55;;;;;;;16.28;nan;100275.81;5003814;28;20050;-77
2021/07/12 00:51:50;;;;;;;3.17;2.42;;;;;;;16.28;nan;100274.00;5013483;28;20046;-77
2021/07/12 00:54:16;;;;;;;3.67;2.70;;;;;;;16.22;nan;100277.44;5000072;28;20499;-77
2021/07/12 00:56:42;;;;;;;5.63;2.55;;;;;;;16.18;nan;100280.69;5004260;28;20124;-77
2021/07/12 00:59:07;;;;;;;3.50;2.88;;;;;;;16.12;nan;100271.63;5013723;28;20025;-77
2021/07/12 01:01:33;;;;;;;3.03;2.50;;;;;;;16.14;nan;100274.94;5012086;28;20046;-77
2021/07/12 01:03:58;;;;;;;3.40;2.63;;;;;;;16.13;nan;100274.09;5011873;28;20423;-77
2021/07/12 01:06:25;;;;;;;2.90;2.42;;;;;;;16.13;nan;100263.41;5003935;28;20038;-77
2021/07/12 01:08:50;;;;;;;3.60;2.78;;;;;;;16.13;nan;100255.41;5012961;28;20033;-77
2021/07/12 01:11:55;;;;;;;3.75;2.50;;;;;;;16.13;nan;100251.94;5002790;28;20499;-77
2021/07/12 01:14:34;;;;;;;3.78;2.40;;;;;;;16.13;nan;100255.41;5008224;28;20068;-77
2021/07/12 01:17:13;;;;;;;2.47;2.22;;;;;;;16.12;nan;100256.44;5013039;28;20038;-77
2021/07/12 01:19:54;;;;;;;3.10;2.80;;;;;;;16.09;nan;100253.34;5012711;28;20433;-77
2021/07/12 01:22:37;;;;;;;7.03;2.97;;;;;;;16.10;nan;100257.66;5006943;28;20077;-76
2021/07/12 01:25:27;;;;;;;4.07;2.95;;;;;;;16.04;nan;100251.28;5006846;28;20037;-76
2021/07/12 01:28:10;;;;;;;3.65;3.10;;;;;;;15.99;nan;100250.19;5005945;28;20053;-76
2021/07/12 01:31:10;;;;;;;4.22;2.65;;;;;;;16.01;nan;100253.47;5011188;28;20053;-76
2021/07/12 01:33:45;;;;;;;3.85;2.60;;;;;;;16.02;nan;100249.81;4997966;28;20121;-76
2021/07/12 01:36:35;;;;;;;3.00;2.42;;;;;;;16.04;nan;100245.09;5011831;28;20437;-77
2021/07/12 01:39:05;;;;;;;3.85;2.75;;;;;;;15.95;nan;100244.44;5005309;28;20062;-76
2021/07/12 01:41:59;;;;;;;5.32;2.92;;;;;;;15.89;nan;100247.84;5011008;28;20377;-76
2021/07/12 01:44:54;;;;;;;4.32;2.65;;;;;;;15.83;nan;100238.81;5010587;28;20034;-76
2021/07/12 01:47:51;;;;;;;3.45;2.70;;;;;;;15.80;nan;100239.19;5011637;28;20034;-76
2021/07/12 01:50:44;;;;;;;4.18;2.65;;;;;;;15.78;nan;100238.56;5007517;28;20065;-76
2021/07/12 01:53:53;;;;;;;2.80;2.38;;;;;;;15.76;nan;100237.09;5004759;28;20088;-76
2021/07/12 01:56:38;;;;;;;3.10;2.70;;;;;;;15.73;nan;100235.66;4970438;28;20041;-76
2021/07/12 01:59:13;;;;;;;2.90;2.50;;;;;;;15.72;nan;100228.66;5012095;28;20121;-76
2021/07/12 02:01:41;;;;;;;4.45;2.80;;;;;;;15.71;nan;100219.84;5011171;28;20076;-76
2021/07/12 02:04:08;;;;;;;3.38;2.58;;;;;;;15.67;nan;100223.03;5011482;28;20049;-76
2021/07/12 02:06:43;;;;;;;3.13;2.80;;;;;;;15.63;nan;100217.25;5008713;28;20042;-76
2021/07/12 02:09:11;;;;;;;3.17;2.75;;;;;;;15.64;nan;100202.94;4999542;28;20062;-76
2021/07/12 02:11:40;;;;;;;3.53;2.80;;;;;;;15.65;nan;100204.56;5010908;28;20036;-76
2021/07/12 02:14:06;;;;;;;4.95;2.90;;;;;;;15.60;nan;100209.66;5011728;28;20038;-77
2021/07/12 02:16:34;;;;;;;3.88;2.80;;;;;;;15.60;nan;100214.16;5004087;28;20042;-76
2021/07/12 02:19:00;;;;;;;3.05;2.65;;;;;;;15.59;nan;100216.03;5004664;28;20041;-76
2021/07/12 02:21:32;;;;;;;4.15;2.50;;;;;;;15.56;nan;100220.88;5010937;28;20072;-76
2021/07/12 02:23:59;;;;;;;3.80;2.90;;;;;;;15.51;nan;100227.63;5007055;28;20065;-76
2021/07/12 02:26:31;;;;;;;4.07;3.00;;;;;;;15.50;nan;100231.31;5009773;28;20068;-76
2021/07/12 02:28:58;;;;;;;3.72;2.63;;;;;;;15.44;nan;100226.72;5009105;28;20041;-76
2021/07/12 02:31:24;;;;;;;3.55;2.92;;;;;;;15.47;nan;100234.38;5009765;28;20040;-77
2021/07/12 02:33:50;;;;;;;4.10;3.05;;;;;;;15.49;nan;100232.34;5007686;28;20045;-76
2021/07/12 02:36:16;;;;;;;4.03;2.72;;;;;;;15.51;nan;100230.28;5009148;28;20026;-76
2021/07/12 02:38:42;;;;;;;3.20;2.50;;;;;;;15.50;nan;100228.63;5009064;28;20085;-76
2021/07/12 02:41:09;;;;;;;3.05;2.50;;;;;;;15.50;nan;100230.50;5008507;28;20141;-76
2021/07/12 02:43:36;;;;;;;2.92;2.63;;;;;;;15.50;nan;100228.63;5008704;28;20030;-77
2021/07/12 02:46:04;;;;;;;3.40;2.67;;;;;;;15.50;nan;100223.31;5010977;28;20037;-76
2021/07/12 02:48:29;;;;;;;3.15;2.40;;;;;;;15.48;nan;100229.84;5010344;28;20065;-76
2021/07/12 02:50:56;;;;;;;3.47;2.55;;;;;;;15.48;nan;100222.69;5006496;28;20061;-78
2021/07/12 02:53:29;;;;;;;5.45;2.85;;;;;;;15.47;nan;100223.69;5006794;28;20034;-76
2021/07/12 02:55:55;;;;;;;4.65;2.75;;;;;;;15.49;nan;100218.16;5007695;28;20037;-76
2021/07/12 02:58:20;;;;;;;2.95;2.53;;;;;;;15.48;nan;100209.34;5008369;28;20136;-77
2021/07/12 03:00:46;;;;;;;3.30;2.90;;;;;;;15.55;nan;100208.59;5009483;28;20045;-76
2021/07/12 03:03:12;;;;;;;3.25;2.80;;;;;;;15.54;nan;100199.78;5010533;28;20280;-76
2021/07/12 03:05:37;;;;;;;3.20;2.67;;;;;;;15.62;nan;100204.97;5008624;28;20477;-76
2021/07/12 03:08:08;;;;;;;3.50;2.90;;;;;;;15.61;nan;100197.16;4999304;28;20042;-76
2021/07/12 03:10:38;;;;;;;;;;;;;;;15.64;nan;100200.28;5010074;28;20034;-76
2021/07/12 03:13:07;;;;;;;3.17;2.70;;;;;;;15.63;nan;100195.13;5008735;28;19948;-76
2021/07/12 03:15:39;;;;;;;3.97;2.95;;;;;;;15.67;nan;100201.72;5010260;28;20033;-76
2021/07/12 03:18:15;;;;;;;4.95;3.03;;;;;;;15.64;nan;100202.13;5010125;28;20036;-76
2021/07/12 03:20:43;;;;;;;4.90;2.65;;;;;;;15.62;nan;100191.63;5010924;28;20057;-76
2021/07/12 03:23:12;;;;;;;3.50;2.83;;;;;;;15.61;nan;100190.00;5007385;28;20034;-76
2021/07/12 03:25:42;;;;;;;3.85;2.88;;;;;;;15.63;nan;100185.28;4997879;28;20040;-77
2021/07/12 03:28:10;;;;;;;3.20;2.58;;;;;;;15.64;nan;100181.63;5010677;28;20245;-76
2021/07/12 03:30:37;;;;;;;2.80;2.40;;;;;;;15.62;nan;100178.31;5009225;28;20038;-76
2021/07/12 03:33:04;;;;;;;3.80;2.60;;;;;;;15.65;nan;100179.75;5007621;28;20657;-76
2021/07/12 03:35:41;;;;;;;3.40;2.65;;;;;;;15.64;nan;100178.94;5007692;28;20466;-76
2021/07/12 03:38:07;;;;;;;3.13;2.70;;;;;;;15.61;nan;100182.00;5010424;28;20506;-76
2021/07/12 03:40:32;;;;;;;4.65;2.80;;;;;;;15.66;nan;100186.72;5010636;28;20041;-76
2021/07/12 03:42:58;;;;;;;4.32;2.50;;;;;;;15.64;nan;100184.28;5006685;28;20037;-76
2021/07/12 03:45:23;;;;;;;3.88;2.60;;;;;;;15.69;nan;100189.03;5010881;28;20066;-76
2021/07/12 03:47:50;;;;;;;3.50;2.90;;;;;;;15.70;nan;100193.38;5009759;28;20510;-76
2021/07/12 03:50:17;;;;;;;3.15;2.60;;;;;;;15.68;nan;100190.03;5008944;28;20403;-76
2021/07/12 03:52:45;;;;;;;3.15;2.42;;;;;;;15.74;nan;100194.63;5010897;28;20066;-76
2021/07/12 03:55:14;;;;;;;2.90;2.55;;;;;;;15.78;nan;100195.06;5011029;28;20063;-76
2021/07/12 03:57:40;;;;;;;2.65;2.30;;;;;;;15.79;nan;100194.06;5006273;28;20045;-76
2021/07/12 04:00:08;;;;;;;4.13;2.55;;;;;;;15.79;nan;100188.72;5008417;28;20041;-76
2021/07/12 04:02:33;;;;;;;2.70;2.20;;;;;;;15.73;nan;100179.66;5010858;28;20083;-76
2021/07/12 04:04:58;;;;;;;3.10;2.50;;;;;;;15.72;nan;100178.00;5012152;28;20494;-76
2021/07/12 04:07:23;;;;;;;5.55;2.63;;;;;;;15.71;nan;100174.53;5013608;28;20064;-76
2021/07/12 04:09:49;;;;;;;5.13;2.90;;;;;;;15.84;nan;100171.09;5008244;28;20128;-76
2021/07/12 04:12:22;;;;;;;3.60;2.70;;;;;;;15.88;nan;100177.72;5012461;28;20406;-77
2021/07/12 04:14:48;;;;;;;4.43;2.72;;;;;;;15.80;nan;100167.22;5014757;28;20494;-77
2021/07/12 04:17:13;;;;;;;4.78;2.95;;;;;;;15.81;nan;100171.50;5014037;28;20064;-77
2021/07/12 04:19:38;;;;;;;4.97;2.80;;;;;;;15.78;nan;100176.38;5001069;28;20038;-76
2021/07/12 04:22:04;;;;;;;3.38;2.60;;;;;;;15.76;nan;100181.94;5014120;28;20037;-77
2021/07/12 04:24:29;;;;;;;4.10;2.40;;;;;;;15.77;nan;100180.09;5007057;28;20092;-78
2021/07/12 04:26:54;;;;;;;3.67;2.40;;;;;;;15.73;nan;100182.34;5013093;28;20458;-77
2021/07/12 04:29:20;;;;;;;3.35;2.40;;;;;;;15.74;nan;100177.81;5015026;28;20042;-77
2021/07/12 04:31:45;;;;;;;3.45;2.60;;;;;;;15.74;nan;100186.63;5030480;28;20066;-76
2021/07/12 04:34:10;;;;;;;3.60;2.40;;;;;;;15.76;nan;100183.78;5010866;28;20061;-77
2021/07/12 04:36:35;;;;;;;2.90;2.40;;;;;;;15.75;nan;100179.47;5014585;28;20062;-77
2021/07/12 04:39:01;;;;;;;3.15;2.58;;;;;;;15.79;nan;100178.88;5009355;28;20058;-77
2021/07/12 04:41:27;;;;;;;4.75;2.22;;;;;;;15.82;nan;100169.66;5011324;28;20037;-77
2021/07/12 04:43:52;;;;;;;3.33;2.60;;;;;;;15.84;nan;100171.09;5013832;28;20034;-77
2021/07/12 04:46:17;;;;;;;3.63;2.53;;;;;;;15.91;nan;100171.16;5011675;28;20033;-77
2021/07/12 04:48:43;;;;;;;2.97;2.17;;;;;;;15.90;nan;100166.88;5006719;28;20050;-77
2021/07/12 04:51:08;;;;;;;3.90;2.38;;;;;;;15.98;nan;100172.03;5011500;28;20030;-77
2021/07/12 04:53:33;;;;;;;4.88;3.08;;;;;;;16.05;nan;100175.56;5011999;28;20044;-77
2021/07/12 04:55:59;;;;;;;5.05;2.90;;;;;;;16.07;nan;100165.53;5014467;28;20056;-77
2021/07/12 04:58:24;;;;;;;3.60;2.40;;;;;;;16.08;nan;100161.81;5004967;28;20045;-77
2021/07/12 05:00:49;;;;;;;3.20;2.70;;;;;;;16.18;nan;100160.66;5007280;28;20041;-76
2021/07/12 05:03:24;;;;;;;3.55;2.88;;;;;;;16.25;nan;100162.31;5012289;28;20033;-77
2021/07/12 05:05:50;;;;;;;3.00;2.42;;;;;;;16.38;nan;100150.91;5027017;28;20045;-76
2021/07/12 05:08:15;;;;;;;5.32;2.65;;;;;;;16.50;nan;100143.16;5013320;28;20034;-77
2021/07/12 05:10:41;;;;;;;3.70;2.70;;;;;;;16.57;nan;100146.66;5008628;28;20045;-77
2021/07/12 05:13:07;;;;;;;5.03;2.65;;;;;;;16.61;nan;100139.06;5013171;28;20084;-77
2021/07/12 05:15:33;;;;;;;3.83;2.90;;;;;;;16.62;nan;100140.72;5013479;28;20037;-77
2021/07/12 05:17:58;;;;;;;4.00;2.35;;;;;;;16.63;nan;100140.50;5014307;28;20030;-77
2021/07/12 05:20:23;;;;;;;7.72;2.42;;;;;;;16.83;nan;100132.59;5029464;28;20410;-77
2021/07/12 05:22:49;;;;;;;2.75;2.15;;;;;;;16.96;nan;100129.94;5012337;28;20278;-77
2021/07/12 05:25:14;;;;;;;3.92;2.25;;;;;;;17.10;nan;100125.44;5012178;28;20045;-77
2021/07/12 05:27:39;;;;;;;2.92;2.00;;;;;;;17.28;nan;100126.66;5011838;28;20068;-77
2021/07/12 05:30:06;;;;;;;6.57;2.97;;;;;;;17.47;nan;100128.53;5012273;28;20045;-78
2021/07/12 05:32:32;;;;;;;3.92;2.45;;;;;;;17.70;nan;100130.75;5014143;28;20029;-77
2021/07/12 05:34:57;;;;;;;3.83;2.28;;;;;;;17.95;nan;100135.50;5014141;28;20034;-77
2021/07/12 05:37:23;;;;;;;3.88;2.47;;;;;;;18.19;nan;100128.63;5008689;28;20026;-77
2021/07/12 05:39:48;;;;;;;2.60;2.00;;;;;;;18.24;nan;100121.59;5013845;28;20459;-77
2021/07/12 05:42:13;;;;;;;3.92;2.85;;;;;;;18.25;nan;100122.41;5011425;28;20030;-76
2021/07/12 05:44:39;;;;;;;11.00;5.50;;;;;;;18.31;nan;100113.53;5012995;28;20034;-77
2021/07/12 05:47:05;;;;;;;4.82;2.85;;;;;;;18.25;nan;100109.84;5015460;28;20148;-78
2021/07/12 05:49:30;;;;;;;3.28;2.42;;;;;;;18.24;nan;100099.34;5006087;28;20034;-77
2021/07/12 05:51:55;;;;;;;3.38;2.40;;;;;;;18.34;nan;100104.25;5013033;28;20084;-78
2021/07/12 05:54:21;;;;;;;4.03;2.10;;;;;;;18.41;nan;100097.81;5012464;28;20089;-77
2021/07/12 05:56:46;;;;;;;2.85;2.10;;;;;;;18.59;nan;100098.97;5013513;28;20462;-77
2021/07/12 05:59:11;;;;;;;1.90;1.52;;;;;;;18.84;nan;100097.19;5013986;28;20033;-78
2021/07/12 06:01:37;;;;;;;2.47;1.90;;;;;;;18.99;nan;100093.38;5009770;28;20135;-78
2021/07/12 06:04:02;;;;;;;4.55;2.00;;;;;;;19.25;nan;100095.84;5011622;28;20061;-77
2021/07/12 06:06:27;;;;;;;4.30;2.10;;;;;;;19.73;nan;100089.88;5014403;28;20089;-77
2021/07/12 06:08:53;;;;;;;2.13;1.77;;;;;;;20.10;nan;100084.50;5004200;28;20241;-78
2021/07/12 06:11:18;;;;;;;1.75;1.42;;;;;;;20.46;nan;100096.22;5012103;28;20060;-77
2021/07/12 06:13:43;;;;;;;2.47;1.80;;;;;;;20.66;nan;100100.53;5006086;28;20073;-77
2021/07/12 06:16:10;;;;;;;2.42;1.70;;;;;;;21.04;nan;100102.84;5008471;28;20121;-78
2021/07/12 06:18:36;;;;;;;2.28;1.42;;;;;;;21.70;nan;100110.88;5003234;28;20502;-78
2021/07/12 06:21:01;;;;;;;2.13;1.50;;;;;;;22.33;nan;100112.75;5013566;28;20180;-78
2021/07/12 06:23:26;;;;;;;2.83;1.50;;;;;;;22.56;nan;100113.72;5013170;28;20065;-78
2021/07/12 06:25:52;;;;;;;1.88;1.30;;;;;;;22.45;nan;100118.09;5011791;28;20038;-78
2021/07/12 06:28:17;;;;;;;2.00;1.35;;;;;;;22.31;nan;100119.41;5007488;28;20037;-78
2021/07/12 06:30:42;;;;;;;2.08;1.40;;;;;;;22.36;nan;100120.38;5007200;28;20030;-79
2021/07/12 06:33:08;;;;;;;3.50;1.73;;;;;;;22.72;nan;100123.72;5012874;28;20038;-80
2021/07/12 06:35:34;;;;;;;3.25;1.40;;;;;;;22.77;nan;100121.13;5006666;28;20069;-80
2021/07/12 06:37:59;;;;;;;4.65;1.88;;;;;;;22.88;nan;100114.00;5015741;28;20053;-78
2021/07/12 06:40:24;;;;;;;9.07;2.15;;;;;;;22.85;nan;100112.63;5013124;28;20161;-78
2021/07/12 06:42:50;;;;;;;3.90;1.67;;;;;;;22.67;nan;100112.84;5014722;28;20041;-78
2021/07/12 06:45:15;;;;;;;5.35;1.90;;;;;;;22.59;nan;100119.44;5004834;28;20038;-78
2021/07/12 06:47:41;;;;;;;3.50;1.80;;;;;;;22.58;nan;100125.09;5012190;28;20091;-78
2021/07/12 06:50:07;;;;;;;3.33;1.85;;;;;;;22.43;nan;100126.44;5013400;28;20033;-77
2021/07/12 06:52:32;;;;;;;2.50;1.70;;;;;;;22.37;nan;100121.97;5010443;28;20030;-78
2021/07/12 06:54:57;;;;;;;1.75;1.40;;;;;;;22.64;nan;100130.34;5012661;28;20048;-78
2021/07/12 06:57:23;;;;;;;3.50;1.60;;;;;;;23.07;nan;100131.66;5014122;28;20499;-77
2021/07/12 06:59:50;;;;;;;2.67;1.27;;;;;;;23.57;nan;100131.88;5013993;28;20050;-78
2021/07/12 07:02:16;;;;;;;2.67;1.65;;;;;;;24.01;nan;100127.41;5013730;28;20045;-78
2021/07/12 07:04:41;;;;;;;2.80;1.70;;;;;;;24.37;nan;100123.25;5012429;28;20034;-78
2021/07/12 07:07:07;;;;;;;1.60;1.15;;;;;;;24.50;nan;100116.69;5014476;28;20118;-77
2021/07/12 07:09:33;;;;;;;3.35;1.60;;;;;;;24.79;nan;100117.22;5029959;28;20037;-78
2021/07/12 07:11:58;;;;;;;3.95;1.55;;;;;;;24.92;nan;100110.56;5014253;28;20030;-78
2021/07/12 07:14:23;;;;;;;2.58;1.67;;;;;;;24.96;nan;100105.47;5010974;28;20060;-78
2021/07/12 07:16:49;;;;;;;3.13;1.50;;;;;;;24.76;nan;100106.91;5012428;28;20046;-78
2021/07/12 07:19:14;;;;;;;2.67;1.40;;;;;;;24.97;nan;100101.69;5010118;28;20479;-78
2021/07/12 07:21:39;;;;;;;2.30;1.23;;;;;;;24.94;nan;100110.34;5006663;28;20056;-77
2021/07/12 07:24:05;;;;;;;1.30;1.10;;;;;;;24.94;nan;100110.34;5011462;28;20045;-78
2021/07/12 07:26:31;;;;;;;3.08;1.30;;;;;;;25.02;nan;100105.25;5009879;28;20177;-78
2021/07/12 07:28:57;;;;;;;2.10;1.10;;;;;;;25.00;nan;100095.75;5013846;28;20041;-78
2021/07/12 07:31:23;;;;;;;3.30;1.20;;;;;;;25.13;nan;100089.13;5012539;28;20038;-78
2021/07/12 07:33:49;;;;;;;1.67;1.10;;;;;;;25.28;nan;100085.72;5012307;28;20076;-78
2021/07/12 07:36:14;;;;;;;1.80;1.30;;;;;;;25.29;nan;100074.66;5012736;28;20137;-78
2021/07/12 07:38:41;;;;;;;2.05;1.10;;;;;;;25.54;nan;100073.19;5011149;28;20026;-78
2021/07/12 07:41:06;;;;;;;1.70;1.25;;;;;;;25.55;nan;100063.97;5004026;28;20088;-78
2021/07/12 07:43:32;;;;;;;2.47;1.02;;;;;;;25.84;nan;100061.69;5010676;28;20034;-78
2021/07/12 07:45:57;;;;;;;2.03;1.38;;;;;;;25.56;nan;100038.53;5008417;28;20521;-78
2021/07/12 07:48:22;;;;;;;1.83;1.30;;;;;;;25.42;nan;100030.06;5009258;28;20042;-78
2021/07/12 07:50:48;;;;;;;1.90;1.10;;;;;;;25.72;nan;100024.00;5005975;28;20538;-78
2021/07/12 07:53:13;;;;;;;2.65;1.30;;;;;;;26.26;nan;100025.53;5004852;28;20038;-78
2021/07/12 07:55:40;;;;;;;1.98;1.08;;;;;;;26.20;nan;100021.19;5003094;28;20056;-77
2021/07/12 07:58:05;;;;;;;1.60;0.95;;;;;;;26.42;nan;100019.06;5011969;28;20049;-78
2021/07/12 08:00:31;;;;;;;4.15;2.28;;;;;;;26.74;nan;100018.00;5002931;28;20038;-78
2021/07/12 08:02:57;;;;;;;2.83;1.58;;;;;;;27.04;nan;100008.22;5009622;28;20038;-79
2021/07/12 08:05:22;;;;;;;2.38;1.20;;;;;;;27.28;nan;100001.13;5010662;28;20035;-77
2021/07/12 08:07:48;;;;;;;3.83;2.10;;;;;;;27.40;nan;99997.31;5001005;28;20065;-77
2021/07/12 08:10:16;;;;;;;3.63;1.77;;;;;;;27.88;nan;99989.53;5007698;28;20037;-78
2021/07/12 08:12:42;;;;;;;1.83;1.10;;;;;;;27.70;nan;99986.34;5002112;28;20054;-78
2021/07/12 08:15:10;;;;;;;1.55;0.90;;;;;;;27.99;nan;99974.81;5012600;28;20033;-78
2021/07/12 08:17:37;;;;;;;1.30;0.90;;;;;;;28.50;nan;99979.91;5017037;28;20229;-77
2021/07/12 08:20:05;;;;;;;1.20;0.80;;;;;;;28.52;nan;99976.91;5004569;28;20041;-78
2021/07/12 08:22:33;;;;;;;1.30;0.90;;;;;;;28.11;nan;99983.41;5009837;28;20094;-78
2021/07/12 08:24:58;;;;;;;0.75;0.65;;;;;;;28.21;nan;99979.81;5011865;28;20483;-77
2021/07/12 08:27:23;;;;;;;1.23;0.80;;;;;;;27.90;nan;99969.13;5009582;28;20084;-76
2021/07/12 08:29:49;;;;;;;1.45;1.00;;;;;;;27.79;nan;99972.16;5009198;28;20065;-76
2021/07/12 08:32:14;;;;;;;1.40;0.82;;;;;;;27.73;nan;99976.81;5010364;28;20065;-77
2021/07/12 08:34:42;;;;;;;1.17;0.80;;;;;;;27.75;nan;99980.88;4999960;28;20042;-76
2021/07/12 08:37:09;;;;;;;1.35;0.90;;;;;;;27.76;nan;99962.66;5005329;28;20391;-77
2021/07/12 08:39:35;;;;;;;1.83;1.00;;;;;;;27.67;nan;99967.06;5010412;28;20038;-77
2021/07/12 08:42:00;;;;;;;0.90;0.73;;;;;;;27.61;nan;99969.00;5013472;28;20033;-77
2021/07/12 08:44:30;;;;;;;1.30;0.90;;;;;;;27.64;nan;99965.72;5012154;28;20037;-77
2021/07/12 08:46:55;;;;;;;1.92;0.93;;;;;;;27.50;nan;99968.22;5006527;28;20121;-77
2021/07/12 08:49:21;;;;;;;1.35;0.90;;;;;;;27.27;nan;99956.09;5014755;28;20106;-77
2021/07/12 08:51:46;;;;;;;1.42;0.93;;;;;;;27.08;nan;99950.41;5010681;28;20470;-77
2021/07/12 08:54:11;;;;;;;2.00;0.98;;;;;;;27.03;nan;99938.75;5014562;28;20474;-77
2021/07/12 08:56:37;;;;;;;1.50;1.10;;;;;;;26.50;nan;99928.22;5014495;28;20120;-77
2021/07/12 08:59:27;;;;;;;1.38;0.90;;;;;;;26.54;nan;99934.75;5014914;28;20479;-78
2021/07/12 09:02:13;;;;;;;1.33;0.80;;;;;;;26.77;nan;99936.09;5007166;28;20038;-77
2021/07/12 09:04:41;;;;;;;1.40;0.90;;;;;;;26.78;nan;99935.00;5024727;28;20030;-77
2021/07/12 09:07:28;;;;;;;1.50;0.80;;;;;;;26.56;nan;99934.50;5011454;28;20136;-78
2021/07/12 09:10:14;;;;;;;2.42;1.13;;;;;;;26.32;nan;99937.72;5022453;28;20514;-77
2021/07/12 09:12:51;;;;;;;1.00;0.80;;;;;;;26.23;nan;99923.09;5008711;28;20095;-77
2021/07/12 09:15:23;;;;;;;2.38;0.90;;;;;;;26.41;nan;99919.00;5014572;28;20034;-77
2021/07/12 09:17:54;;;;;;;1.30;0.90;;;;;;;26.39;nan;99913.88;5015019;28;20034;-77
2021/07/12 09:20:28;;;;;;;1.08;0.82;;;;;;;26.43;nan;99911.41;5014648;28;20034;-77
2021/07/12 09:22:54;;;;;;;0.68;0.68;;;;;;;26.32;nan;99910.63;5014350;28;20057;-77
2021/07/12 09:25:20;;;;;;;1.48;1.00;;;;;;;26.34;nan;99913.88;5015918;28;20147;-77
2021/07/12 09:27:45;;;;;;;2.05;1.10;;;;;;;26.26;nan;99907.09;5031278;28;20037;-78
2021/07/12 09:30:13;;;;;;;1.17;0.70;;;;;;;26.52;nan;99915.22;5015993;28;20075;-77
2021/07/12 09:32:41;;;;;;;1.50;0.85;;;;;;;26.44;nan;99913.06;5016338;28;20029;-77
2021/07/12 09:35:12;;;;;;;1.10;0.82;;;;;;;26.47;nan;99907.88;5019863;28;20030;-77
2021/07/12 09:37:40;;;;;;;1.20;0.90;;;;;;;26.76;nan;99907.34;5018655;28;20149;-77
2021/07/12 09:40:08;;;;;;;1.58;0.85;;;;;;;26.77;nan;99905.44;5015079;28;20049;-77
2021/07/12 09:42:34;;;;;;;2.55;0.95;;;;;;;26.75;nan;99899.50;5017574;28;20041;-77
2021/07/12 09:45:04;;;;;;;1.60;1.10;;;;;;;26.74;nan;99906.78;5013144;28;20066;-77
2021/07/12 09:47:32;;;;;;;1.10;0.80;;;;;;;26.53;nan;99900.59;5014357;28;20180;-77
2021/07/12 09:50:05;;;;;;;1.65;1.00;;;;;;;26.75;nan;99891.34;5014056;28;20061;-77
2021/07/12 09:53:01;;;;;;;2.58;0.90;;;;;;;26.54;nan;99896.81;5013769;28;20037;-77
2021/07/12 09:55:26;;;;;;;1.10;0.90;;;;;;;26.44;nan;99903.03;5012932;28;20064;-78
2021/07/12 09:58:15;;;;;;;1.35;0.90;;;;;;;26.55;nan;99916.59;5013035;28;20399;-77
2021/07/12 10:01:01;;;;;;;1.10;0.70;;;;;;;26.43;nan;99911.41;5013571;28;20495;-77
2021/07/12 10:03:26;;;;;;;0.95;0.80;;;;;;;26.66;nan;99916.31;5013221;28;20046;-77
2021/07/12 10:05:53;;;;;;;1.27;0.77;;;;;;;26.92;nan;99918.97;5014079;28;20122;-77
2021/07/12 10:08:19;;;;;;;1.00;0.80;;;;;;;26.94;nan;99916.81;5011579;28;20544;-77
2021/07/12 10:10:44;;;;;;;1.08;0.70;;;;;;;27.27;nan;99917.28;5014125;28;20088;-77
2021/07/12 10:13:10;;;;;;;2.17;0.80;;;;;;;27.49;nan;99916.91;4998576;28;20426;-77
2021/07/12 10:15:35;;;;;;;1.40;0.90;;;;;;;27.23;nan;99902.63;5013441;28;20034;-77
2021/07/12 10:18:02;;;;;;;1.08;0.77;;;;;;;27.50;nan;99900.31;5014083;28;20034;-77
2021/07/12 10:20:33;;;;;;;0.90;0.77;;;;;;;27.59;nan;99892.41;5013226;28;20495;-77
2021/07/12 10:22:59;;;;;;;0.60;0.60;;;;;;;27.29;nan;99891.47;5013150;28;20145;-77
2021/07/12 10:25:27;;;;;;;2.05;0.90;;;;;;;27.33;nan;99887.09;5011764;28;20499;-77
2021/07/12 10:27:54;;;;;;;0.90;0.80;;;;;;;27.01;nan;99884.78;5014150;28;20034;-77
2021/07/12 10:30:47;;;;;;;1.15;0.85;;;;;;;27.21;nan;99893.94;5014326;28;20038;-77
2021/07/12 10:33:15;;;;;;;2.30;0.82;;;;;;;27.22;nan;99885.53;5006659;28;20045;-76
2021/07/12 10:35:53;;;;;;;0.88;0.75;;;;;;;27.44;nan;99887.88;4994224;28;20393;-76
2021/07/12 10:38:27;;;;;;;1.27;0.90;;;;;;;27.72;nan;99891.78;4997513;28;20061;-76
2021/07/12 10:40:53;;;;;;;2.00;0.90;;;;;;;27.54;nan;99892.44;5012594;28;20037;-76
2021/07/12 10:43:44;;;;;;;1.38;0.90;;;;;;;27.65;nan;99894.00;5015861;28;20041;-76
2021/07/12 10:46:30;;;;;;;1.55;0.80;;;;;;;27.27;nan;99895.56;5013868;28;20395;-77
2021/07/12 10:49:01;;;;;;;1.13;0.85;;;;;;;27.11;nan;99895.56;5012653;28;20510;-77
2021/07/12 10:51:46;;;;;;;1.20;0.85;;;;;;;27.39;nan;99900.63;5011213;28;20145;-77
2021/07/12 10:54:16;;;;;;;1.30;0.90;;;;;;;27.39;nan;99887.06;5011918;28;20037;-76
2021/07/12 10:56:58;;;;;;;1.38;0.90;;;;;;;27.13;nan;99906.16;5011855;28;20562;-77
2021/07/12 10:59:37;;;;;;;1.98;0.80;;;;;;;27.16;nan;99897.47;5011790;28;20069;-76
2021/07/12 11:02:25;;;;;;;1.25;0.80;;;;;;;27.33;nan;99905.28;5010870;28;20040;-77
2021/07/12 11:05:03;;;;;;;1.27;0.82;;;;;;;27.26;nan;99919.16;5026780;28;20034;-77
2021/07/12 11:07:46;;;;;;;1.50;0.90;;;;;;;27.19;nan;99912.38;5012582;28;20041;-76
2021/07/12 11:10:28;;;;;;;2.30;1.00;;;;;;;27.44;nan;99911.50;5011689;28;20061;-77
2021/07/12 11:13:02;;;;;;;0.95;0.75;;;;;;;27.63;nan;99925.25;5011444;28;20022;-77
2021/07/12 11:15:36;;;;;;;1.20;0.82;;;;;;;27.77;nan;99928.16;5011365;28;20386;-76
2021/07/12 11:18:05;;;;;;;1.20;0.90;;;;;;;27.58;nan;99920.66;5012535;28;20034;-77
2021/07/12 11:20:46;;;;;;;1.20;0.85;;;;;;;27.76;nan;99919.19;5011609;28;20107;-76
2021/07/12 11:23:33;;;;;;;0.93;0.70;;;;;;;27.93;nan;99918.84;5010881;28;20034;-76
2021/07/12 11:25:58;;;;;;;1.65;0.80;;;;;;;27.94;nan;99918.56;5010816;28;20054;-76
2021/07/12 11:28:44;;;;;;;1.40;0.90;;;;;;;28.09;nan;99920.38;5011614;28;20065;-77
2021/07/12 11:31:38;;;;;;;1.40;1.10;;;;;;;28.12;nan;99916.25;5010384;28;20037;-77
2021/07/12 11:34:05;;;;;;;1.00;0.70;;;;;;;28.41;nan;99910.06;5003568;28;20579;-76
2021/07/12 11:36:30;;;;;;;0.90;0.70;;;;;;;28.65;nan;99924.56;5009686;28;20041;-77
2021/07/12 11:38:56;;;;;;;0.90;0.70;;;;;;;28.72;nan;99921.47;5010965;28;20459;-76
2021/07/12 11:41:24;;;;;;;2.40;0.90;;;;;;;28.48;nan;99910.56;5010214;28;20077;-77
2021/07/12 11:44:10;;;;;;;1.63;1.08;;;;;;;28.57;nan;99908.84;4999305;28;20041;-76
2021/07/12 11:46:36;;;;;;;1.33;0.80;;;;;;;28.53;nan;99907.78;5005806;28;20034;-76
2021/07/12 11:49:12;;;;;;;0.82;0.70;;;;;;;28.78;nan;99904.81;5010281;28;20041;-77
2021/07/12 11:51:39;;;;;;;1.20;0.73;;;;;;;28.84;nan;99907.50;5010939;28;20037;-77
2021/07/12 11:54:33;;;;;;;1.70;0.95;;;;;;;28.94;nan;99902.75;5011933;28;20523;-76